createdAt,value
2022-11-10T00:01:11.365Z,23.71
2022-11-10T00:06:33.800Z,23.67
2022-11-10T00:11:55.252Z,23.69
2022-11-10T00:17:16.594Z,23.72
2022-11-10T00:22:40.878Z,23.67
2022-11-10T00:28:02.535Z,23.67
2022-11-10T00:33:24.150Z,23.74
2022-11-10T00:38:47.555Z,23.72
2022-11-10T00:44:08.811Z,23.70
2022-11-10T00:49:30.549Z,23.71
2022-11-10T00:54:53.048Z,23.73
2022-11-10T01:00:14.685Z,23.76
2022-11-10T01:05:38.955Z,23.74
2022-11-10T01:11:04.097Z,23.73
2022-11-10T01:16:30.445Z,23.72
2022-11-10T01:21:54.370Z,23.74
2022-11-10T01:27:16.870Z,23.75
2022-11-10T01:32:38.526Z,23.74
2022-11-10T01:37:59.707Z,23.75
2022-11-10T01:43:23.345Z,23.74
2022-11-10T01:48:47.363Z,23.74
2022-11-10T01:54:12.830Z,23.75
2022-11-10T01:59:40.283Z,23.75
2022-11-10T02:05:03.853Z,23.77
2022-11-10T02:10:25.517Z,23.75
2022-11-10T02:15:48.171Z,23.74
2022-11-10T02:21:11.356Z,23.78
2022-11-10T02:26:33.099Z,23.76
2022-11-10T02:31:54.142Z,23.75
2022-11-10T02:37:17.089Z,23.74
2022-11-10T02:42:38.289Z,23.75
2022-11-10T02:47:59.752Z,23.72
2022-11-10T02:53:22.887Z,23.68
2022-11-10T02:58:44.410Z,23.67
2022-11-10T03:04:06.852Z,23.64
2022-11-10T03:09:29.501Z,23.63
2022-11-10T03:14:50.869Z,23.60
2022-11-10T03:20:12.571Z,23.60
2022-11-10T03:25:35.368Z,23.55
2022-11-10T03:30:56.760Z,23.56
2022-11-10T03:36:18.106Z,23.56
2022-11-10T03:41:41.056Z,23.53
2022-11-10T03:47:03.885Z,23.49
2022-11-10T03:52:25.296Z,23.48
2022-11-10T03:57:48.040Z,23.47
2022-11-10T04:03:09.562Z,23.45
2022-11-10T04:08:48.427Z,23.45
2022-11-10T04:14:35.762Z,23.44
2022-11-10T04:19:57.113Z,23.44
2022-11-10T04:25:18.718Z,23.44
2022-11-10T04:30:41.289Z,23.41
2022-11-10T04:36:02.424Z,23.43
2022-11-10T04:41:24.785Z,23.40
2022-11-10T04:46:47.568Z,23.39
2022-11-10T04:52:09.021Z,23.35
2022-11-10T04:57:30.510Z,23.33
2022-11-10T05:02:53.440Z,23.30
2022-11-10T05:08:15.209Z,23.31
2022-11-10T05:13:37.501Z,23.33
2022-11-10T05:19:00.483Z,23.31
2022-11-10T05:24:21.874Z,23.28
2022-11-10T05:29:43.290Z,23.26
2022-11-10T05:35:06.788Z,23.20
2022-11-10T05:40:28.771Z,23.18
2022-11-10T05:45:50.299Z,23.13
2022-11-10T05:51:13.008Z,23.10
2022-11-10T05:56:34.498Z,23.08
2022-11-10T06:01:55.966Z,23.03
2022-11-10T06:07:18.801Z,22.98
2022-11-10T06:12:40.268Z,22.94
2022-11-10T06:18:02.154Z,22.90
2022-11-10T06:23:25.133Z,22.85
2022-11-10T06:28:46.871Z,22.82
2022-11-10T06:34:08.514Z,22.77
2022-11-10T06:39:31.143Z,22.73
2022-11-10T06:44:52.247Z,22.70
2022-11-10T06:50:13.484Z,22.65
2022-11-10T06:55:36.120Z,22.63
2022-11-10T07:01:00.877Z,22.59
2022-11-10T07:06:22.619Z,22.57
2022-11-10T07:11:45.468Z,22.55
2022-11-10T07:17:06.939Z,22.52
2022-11-10T07:22:28.280Z,22.51
2022-11-10T07:27:56.072Z,22.47
2022-11-10T07:33:17.957Z,22.46
2022-11-10T07:38:39.231Z,22.44
2022-11-10T07:44:02.335Z,22.42
2022-11-10T07:49:23.447Z,22.41
2022-11-10T07:54:44.909Z,22.40
2022-11-10T08:00:09.206Z,22.40
2022-11-10T08:05:30.741Z,21.23
2022-11-10T08:10:51.999Z,20.54
2022-11-10T08:16:14.739Z,19.80
2022-11-10T08:21:36.286Z,20.55
2022-11-10T08:26:57.874Z,20.85
2022-11-10T08:32:21.211Z,21.05
2022-11-10T08:37:42.772Z,21.19
2022-11-10T08:43:07.373Z,21.27
2022-11-10T08:48:29.889Z,21.33
2022-11-10T08:53:51.321Z,21.37
2022-11-10T08:59:12.539Z,21.39
2022-11-10T09:04:35.387Z,21.41
2022-11-10T09:10:06.839Z,21.39
2022-11-10T09:15:29.804Z,21.42
2022-11-10T09:20:52.316Z,21.08
2022-11-10T09:26:13.934Z,20.96
2022-11-10T09:31:35.450Z,21.17
2022-11-10T09:36:58.075Z,21.25
2022-11-10T09:42:28.330Z,21.28
2022-11-10T09:47:59.558Z,21.30
2022-11-10T09:53:25.739Z,21.32
2022-11-10T09:58:47.628Z,21.34
2022-11-10T10:04:22.731Z,21.36
2022-11-10T10:09:54.054Z,21.36
2022-11-10T10:15:28.285Z,21.38
2022-11-10T10:21:05.643Z,21.43
2022-11-10T10:26:31.025Z,21.46
2022-11-10T10:31:53.995Z,21.48
2022-11-10T10:37:24.521Z,21.52
2022-11-10T10:42:47.726Z,21.51
2022-11-10T10:48:25.655Z,21.55
2022-11-10T10:53:48.073Z,21.55
2022-11-10T10:59:20.289Z,21.60
2022-11-10T11:04:42.200Z,21.65
2022-11-10T11:10:03.936Z,21.76
2022-11-10T11:15:30.294Z,21.80
2022-11-10T11:21:00.792Z,21.82
2022-11-10T11:26:30.705Z,21.81
2022-11-10T11:32:02.976Z,21.82
2022-11-10T11:37:35.080Z,21.83
2022-11-10T11:43:08.796Z,21.90
2022-11-10T11:48:58.244Z,21.99
2022-11-10T11:54:30.027Z,22.09
2022-11-10T12:00:04.518Z,22.15
2022-11-10T12:05:37.584Z,22.25
2022-11-10T12:11:09.720Z,22.25
2022-11-10T12:16:33.346Z,22.27
2022-11-10T12:22:08.410Z,22.26
2022-11-10T12:27:33.938Z,22.31
2022-11-10T12:33:03.484Z,22.33
2022-11-10T12:38:37.281Z,22.41
2022-11-10T12:44:07.323Z,22.55
2022-11-10T12:49:33.930Z,22.61
2022-11-10T12:54:56.769Z,22.64
2022-11-10T13:00:28.614Z,22.63
2022-11-10T13:05:56.823Z,22.59
2022-11-10T13:11:27.399Z,22.54
2022-11-10T13:16:53.923Z,22.58
2022-11-10T13:22:31.593Z,22.59
2022-11-10T13:27:54.885Z,22.63
2022-11-10T13:33:36.279Z,22.61
2022-11-10T13:38:57.781Z,22.60
2022-11-10T13:44:26.347Z,22.59
2022-11-10T13:50:03.375Z,22.59
2022-11-10T13:55:47.313Z,22.58
2022-11-10T14:01:26.909Z,22.56
2022-11-10T14:06:51.338Z,22.56
2022-11-10T14:12:23.315Z,22.49
2022-11-10T14:17:50.004Z,22.09
2022-11-10T14:23:20.790Z,22.30
2022-11-10T14:28:42.109Z,22.31
2022-11-10T14:34:05.247Z,22.19
2022-11-10T14:39:32.740Z,22.12
2022-11-10T14:45:07.794Z,22.06
2022-11-10T14:50:33.984Z,22.01
2022-11-10T14:55:55.988Z,22.00
2022-11-10T15:01:27.153Z,21.97
2022-11-10T15:06:52.736Z,21.93
2022-11-10T15:12:24.301Z,21.88
2022-11-10T15:17:47.820Z,21.80
2022-11-10T15:23:22.449Z,21.72
2022-11-10T15:28:44.021Z,21.67
2022-11-10T15:34:06.306Z,21.61
2022-11-10T15:39:30.104Z,21.57
2022-11-10T15:44:51.555Z,21.52
2022-11-10T15:50:13.291Z,21.47
2022-11-10T15:55:36.336Z,21.46
2022-11-10T16:00:57.666Z,21.45
2022-11-10T16:06:18.899Z,21.39
2022-11-10T16:11:43.468Z,21.38
2022-11-10T16:17:04.737Z,21.35
2022-11-10T16:22:26.152Z,21.35
2022-11-10T16:27:49.808Z,21.35
2022-11-10T16:33:15.572Z,21.40
2022-11-10T16:38:36.912Z,21.39
2022-11-10T16:43:59.922Z,21.40
2022-11-10T16:49:27.903Z,21.38
2022-11-10T16:54:49.186Z,21.38
2022-11-10T17:00:13.270Z,21.39
2022-11-10T17:05:35.471Z,21.37
2022-11-10T17:10:57.683Z,21.42
2022-11-10T17:16:26.896Z,21.45
2022-11-10T17:21:50.561Z,21.48
2022-11-10T17:27:11.932Z,21.48
2022-11-10T17:33:02.952Z,21.48
2022-11-10T17:38:22.077Z,21.33
2022-11-10T17:43:45.960Z,21.35
2022-11-10T17:49:08.768Z,21.34
2022-11-10T17:54:30.342Z,21.18
2022-11-10T17:59:51.988Z,21.11
2022-11-10T18:05:16.440Z,21.11
2022-11-10T18:10:41.616Z,21.10
2022-11-10T18:16:03.352Z,21.23
2022-11-10T18:21:25.927Z,21.38
2022-11-10T18:26:48.121Z,21.52
2022-11-10T18:32:09.521Z,21.66
2022-11-10T18:37:34.696Z,21.75
2022-11-10T18:43:05.942Z,21.81
2022-11-10T18:48:32.073Z,21.87
2022-11-10T18:53:57.431Z,21.93
2022-11-10T18:59:18.952Z,21.98
2022-11-10T19:04:40.690Z,22.07
2022-11-10T19:10:03.243Z,22.15
2022-11-10T19:15:24.455Z,22.21
2022-11-10T19:20:45.523Z,22.28
2022-11-10T19:26:11.406Z,22.35
2022-11-10T19:31:32.778Z,22.42
2022-11-10T19:36:54.355Z,22.49
2022-11-10T19:42:17.315Z,22.54
2022-11-10T19:47:38.794Z,22.58
2022-11-10T19:53:00.421Z,22.64
2022-11-10T19:58:23.285Z,22.69
2022-11-10T20:03:44.748Z,22.73
2022-11-10T20:09:06.798Z,22.75
2022-11-10T20:14:29.438Z,22.80
2022-11-10T20:19:50.614Z,22.85
2022-11-10T20:25:12.153Z,22.88
2022-11-10T20:30:36.692Z,22.93
2022-11-10T20:36:03.313Z,22.98
2022-11-10T20:41:27.167Z,23.02
2022-11-10T20:46:54.622Z,23.05
2022-11-10T20:52:16.874Z,23.07
2022-11-10T20:57:38.235Z,23.10
2022-11-10T21:03:01.039Z,23.12
2022-11-10T21:08:22.861Z,23.27
2022-11-10T21:13:44.217Z,23.23
2022-11-10T21:19:07.288Z,23.21
2022-11-10T21:24:29.180Z,23.22
2022-11-10T21:29:50.314Z,23.25
2022-11-10T21:35:13.134Z,23.28
2022-11-10T21:40:34.845Z,23.31
2022-11-10T21:45:57.433Z,23.34
2022-11-10T21:51:21.072Z,23.34
2022-11-10T21:56:42.454Z,23.35
2022-11-10T22:02:03.782Z,23.37
2022-11-10T22:07:26.479Z,23.39
2022-11-10T22:13:05.601Z,23.42
2022-11-10T22:18:40.331Z,23.43
2022-11-10T22:24:27.501Z,23.48
2022-11-10T22:29:48.745Z,23.50
2022-11-10T22:35:31.010Z,23.53
2022-11-10T22:41:11.324Z,23.54
2022-11-10T22:46:34.792Z,23.56
2022-11-10T22:51:56.343Z,23.57
2022-11-10T22:57:19.126Z,23.58
2022-11-10T23:02:40.591Z,23.60
2022-11-10T23:08:02.162Z,23.60
2022-11-10T23:13:25.314Z,23.63
2022-11-10T23:18:49.562Z,23.64
2022-11-10T23:24:11.002Z,23.62
2022-11-10T23:29:33.688Z,23.65
2022-11-10T23:34:55.420Z,23.65
2022-11-10T23:40:16.937Z,23.67
2022-11-10T23:46:05.970Z,23.67
2022-11-10T23:51:26.277Z,23.67
2022-11-10T23:56:47.590Z,23.68
